sensor_id;sensor_type;location;lat;lon;timestamp;P1;durP1;ratioP1;P2;durP2;ratioP2
18818;SDS011;9537;45.594;9.294;2023-03-01T00:00:42;29.13;;;19.03;;
18818;SDS011;9537;45.594;9.294;2023-03-01T00:01:47;31.77;;;19.37;;
18818;SDS011;9537;45.594;9.294;2023-03-01T00:02:48;36.30;;;19.83;;
18818;SDS011;9537;45.594;9.294;2023-03-01T00:03:51;27.30;;;17.80;;
18818;SDS011;9537;45.594;9.294;2023-03-01T00:04:53;31.87;;;17.87;;
18818;SDS011;9537;45.594;9.294;2023-03-01T00:05:55;30.37;;;19.53;;
18818;SDS011;9537;45.594;9.294;2023-03-01T00:06:56;30.47;;;19.03;;
18818;SDS011;9537;45.594;9.294;2023-03-01T00:07:58;29.90;;;17.83;;
18818;SDS011;9537;45.594;9.294;2023-03-01T00:08:59;30.37;;;18.37;;
18818;SDS011;9537;45.594;9.294;2023-03-01T00:10:01;29.13;;;17.53;;
18818;SDS011;9537;45.594;9.294;2023-03-01T00:11:04;30.60;;;18.47;;
18818;SDS011;9537;45.594;9.294;2023-03-01T00:12:07;32.17;;;19.40;;
18818;SDS011;9537;45.594;9.294;2023-03-01T00:13:08;29.47;;;18.87;;
18818;SDS011;9537;45.594;9.294;2023-03-01T00:14:12;32.23;;;18.83;;
18818;SDS011;9537;45.594;9.294;2023-03-01T00:15:13;34.73;;;20.63;;
18818;SDS011;9537;45.594;9.294;2023-03-01T00:16:16;35.00;;;18.77;;
18818;SDS011;9537;45.594;9.294;2023-03-01T00:17:19;31.77;;;18.43;;
18818;SDS011;9537;45.594;9.294;2023-03-01T00:18:21;30.50;;;19.23;;
18818;SDS011;9537;45.594;9.294;2023-03-01T00:19:22;31.27;;;20.00;;
18818;SDS011;9537;45.594;9.294;2023-03-01T00:20:25;31.20;;;18.97;;
18818;SDS011;9537;45.594;9.294;2023-03-01T00:21:26;33.87;;;18.83;;
18818;SDS011;9537;45.594;9.294;2023-03-01T00:22:29;29.27;;;19.77;;
18818;SDS011;9537;45.594;9.294;2023-03-01T00:23:30;33.20;;;18.70;;
18818;SDS011;9537;45.594;9.294;2023-03-01T00:24:32;34.60;;;19.17;;
18818;SDS011;9537;45.594;9.294;2023-03-01T00:25:33;31.90;;;20.20;;
18818;SDS011;9537;45.594;9.294;2023-03-01T00:26:42;36.07;;;20.43;;
18818;SDS011;9537;45.594;9.294;2023-03-01T00:27:46;31.43;;;19.63;;
18818;SDS011;9537;45.594;9.294;2023-03-01T00:28:48;33.70;;;19.20;;
18818;SDS011;9537;45.594;9.294;2023-03-01T00:29:51;34.03;;;20.30;;
18818;SDS011;9537;45.594;9.294;2023-03-01T00:30:52;32.37;;;19.77;;
18818;SDS011;9537;45.594;9.294;2023-03-01T00:31:54;36.03;;;19.57;;
18818;SDS011;9537;45.594;9.294;2023-03-01T00:32:55;35.13;;;19.47;;
18818;SDS011;9537;45.594;9.294;2023-03-01T00:33:58;32.50;;;19.63;;
18818;SDS011;9537;45.594;9.294;2023-03-01T00:35:02;34.00;;;20.43;;
18818;SDS011;9537;45.594;9.294;2023-03-01T00:36:06;34.90;;;19.70;;
18818;SDS011;9537;45.594;9.294;2023-03-01T00:37:07;32.13;;;19.90;;
18818;SDS011;9537;45.594;9.294;2023-03-01T00:38:09;35.43;;;20.33;;
18818;SDS011;9537;45.594;9.294;2023-03-01T00:39:12;30.60;;;19.47;;
18818;SDS011;9537;45.594;9.294;2023-03-01T00:40:17;31.33;;;20.07;;
18818;SDS011;9537;45.594;9.294;2023-03-01T00:41:19;31.60;;;20.60;;
18818;SDS011;9537;45.594;9.294;2023-03-01T00:42:22;33.83;;;20.00;;
18818;SDS011;9537;45.594;9.294;2023-03-01T00:43:23;33.03;;;19.13;;
18818;SDS011;9537;45.594;9.294;2023-03-01T00:44:26;33.13;;;19.50;;
18818;SDS011;9537;45.594;9.294;2023-03-01T00:45:29;31.20;;;19.73;;
18818;SDS011;9537;45.594;9.294;2023-03-01T00:46:32;30.40;;;18.33;;
18818;SDS011;9537;45.594;9.294;2023-03-01T00:47:34;30.77;;;19.93;;
18818;SDS011;9537;45.594;9.294;2023-03-01T00:48:36;29.67;;;18.10;;
18818;SDS011;9537;45.594;9.294;2023-03-01T00:49:37;31.77;;;18.70;;
18818;SDS011;9537;45.594;9.294;2023-03-01T00:50:39;28.20;;;18.17;;
18818;SDS011;9537;45.594;9.294;2023-03-01T00:51:40;29.10;;;19.00;;
18818;SDS011;9537;45.594;9.294;2023-03-01T00:52:43;31.00;;;17.93;;
18818;SDS011;9537;45.594;9.294;2023-03-01T00:53:44;31.73;;;19.00;;
18818;SDS011;9537;45.594;9.294;2023-03-01T00:54:47;29.10;;;18.27;;
18818;SDS011;9537;45.594;9.294;2023-03-01T00:55:48;30.93;;;18.47;;
18818;SDS011;9537;45.594;9.294;2023-03-01T00:56:50;29.40;;;19.00;;
18818;SDS011;9537;45.594;9.294;2023-03-01T00:57:51;31.53;;;19.60;;
18818;SDS011;9537;45.594;9.294;2023-03-01T00:58:53;29.30;;;18.90;;
18818;SDS011;9537;45.594;9.294;2023-03-01T00:59:54;32.93;;;18.33;;
18818;SDS011;9537;45.594;9.294;2023-03-01T01:00:58;35.23;;;19.70;;
18818;SDS011;9537;45.594;9.294;2023-03-01T01:01:59;33.33;;;19.57;;
18818;SDS011;9537;45.594;9.294;2023-03-01T01:03:01;29.53;;;18.37;;
18818;SDS011;9537;45.594;9.294;2023-03-01T01:04:03;32.60;;;20.97;;
18818;SDS011;9537;45.594;9.294;2023-03-01T01:05:06;27.40;;;18.17;;
18818;SDS011;9537;45.594;9.294;2023-03-01T01:06:12;32.40;;;19.40;;
18818;SDS011;9537;45.594;9.294;2023-03-01T01:07:14;30.63;;;18.47;;
18818;SDS011;9537;45.594;9.294;2023-03-01T01:08:17;35.37;;;20.30;;
18818;SDS011;9537;45.594;9.294;2023-03-01T01:09:18;32.90;;;19.17;;
18818;SDS011;9537;45.594;9.294;2023-03-01T01:10:20;33.33;;;20.17;;
18818;SDS011;9537;45.594;9.294;2023-03-01T01:11:21;29.50;;;19.20;;
18818;SDS011;9537;45.594;9.294;2023-03-01T01:12:24;30.10;;;19.07;;
18818;SDS011;9537;45.594;9.294;2023-03-01T01:13:26;31.53;;;19.10;;
18818;SDS011;9537;45.594;9.294;2023-03-01T01:14:28;36.07;;;20.47;;
18818;SDS011;9537;45.594;9.294;2023-03-01T01:15:33;32.03;;;18.70;;
18818;SDS011;9537;45.594;9.294;2023-03-01T01:16:37;34.37;;;19.33;;
18818;SDS011;9537;45.594;9.294;2023-03-01T01:17:38;31.33;;;19.53;;
18818;SDS011;9537;45.594;9.294;2023-03-01T01:18:40;29.63;;;19.97;;
18818;SDS011;9537;45.594;9.294;2023-03-01T01:19:41;31.93;;;19.70;;
18818;SDS011;9537;45.594;9.294;2023-03-01T01:20:43;32.90;;;19.53;;
18818;SDS011;9537;45.594;9.294;2023-03-01T01:21:44;29.87;;;18.50;;
18818;SDS011;9537;45.594;9.294;2023-03-01T01:22:48;32.50;;;19.20;;
18818;SDS011;9537;45.594;9.294;2023-03-01T01:23:49;32.23;;;19.80;;
18818;SDS011;9537;45.594;9.294;2023-03-01T01:24:52;29.07;;;18.77;;
18818;SDS011;9537;45.594;9.294;2023-03-01T01:25:53;34.43;;;18.83;;
18818;SDS011;9537;45.594;9.294;2023-03-01T01:26:55;29.83;;;19.40;;
18818;SDS011;9537;45.594;9.294;2023-03-01T01:27:56;30.43;;;19.40;;
18818;SDS011;9537;45.594;9.294;2023-03-01T01:28:59;33.77;;;20.27;;
18818;SDS011;9537;45.594;9.294;2023-03-01T01:30:01;28.77;;;18.97;;
18818;SDS011;9537;45.594;9.294;2023-03-01T01:31:03;33.00;;;19.83;;
18818;SDS011;9537;45.594;9.294;2023-03-01T01:32:06;27.70;;;18.33;;
18818;SDS011;9537;45.594;9.294;2023-03-01T01:33:08;32.17;;;18.97;;
18818;SDS011;9537;45.594;9.294;2023-03-01T01:34:12;34.63;;;20.60;;
18818;SDS011;9537;45.594;9.294;2023-03-01T01:35:16;30.03;;;18.67;;
18818;SDS011;9537;45.594;9.294;2023-03-01T01:36:17;30.53;;;18.37;;
18818;SDS011;9537;45.594;9.294;2023-03-01T01:37:20;34.00;;;19.20;;
18818;SDS011;9537;45.594;9.294;2023-03-01T01:38:21;31.73;;;18.87;;
18818;SDS011;9537;45.594;9.294;2023-03-01T01:39:23;33.07;;;19.83;;
18818;SDS011;9537;45.594;9.294;2023-03-01T01:40:24;34.80;;;19.33;;
18818;SDS011;9537;45.594;9.294;2023-03-01T01:41:27;30.87;;;19.13;;
18818;SDS011;9537;45.594;9.294;2023-03-01T01:42:28;29.13;;;18.97;;
18818;SDS011;9537;45.594;9.294;2023-03-01T01:43:34;29.17;;;18.73;;
18818;SDS011;9537;45.594;9.294;2023-03-01T01:44:36;29.10;;;18.10;;
18818;SDS011;9537;45.594;9.294;2023-03-01T01:45:38;30.73;;;19.13;;
18818;SDS011;9537;45.594;9.294;2023-03-01T01:46:41;33.27;;;19.23;;
18818;SDS011;9537;45.594;9.294;2023-03-01T01:47:47;30.20;;;19.37;;
18818;SDS011;9537;45.594;9.294;2023-03-01T01:48:49;30.13;;;18.20;;
18818;SDS011;9537;45.594;9.294;2023-03-01T01:49:55;27.57;;;17.63;;
18818;SDS011;9537;45.594;9.294;2023-03-01T01:50:59;30.20;;;19.10;;
18818;SDS011;9537;45.594;9.294;2023-03-01T01:52:04;28.70;;;17.80;;
18818;SDS011;9537;45.594;9.294;2023-03-01T01:53:11;31.63;;;18.97;;
18818;SDS011;9537;45.594;9.294;2023-03-01T01:54:19;28.40;;;18.70;;
18818;SDS011;9537;45.594;9.294;2023-03-01T01:55:25;31.10;;;17.50;;
18818;SDS011;9537;45.594;9.294;2023-03-01T01:56:28;30.33;;;18.40;;
18818;SDS011;9537;45.594;9.294;2023-03-01T01:57:32;28.47;;;18.33;;
18818;SDS011;9537;45.594;9.294;2023-03-01T01:58:37;30.53;;;19.47;;
18818;SDS011;9537;45.594;9.294;2023-03-01T01:59:39;28.53;;;19.07;;
18818;SDS011;9537;45.594;9.294;2023-03-01T02:00:45;32.80;;;18.80;;
18818;SDS011;9537;45.594;9.294;2023-03-01T02:01:47;29.93;;;19.10;;
18818;SDS011;9537;45.594;9.294;2023-03-01T02:02:51;29.37;;;19.00;;
18818;SDS011;9537;45.594;9.294;2023-03-01T02:03:58;29.67;;;17.83;;
18818;SDS011;9537;45.594;9.294;2023-03-01T02:05:01;32.70;;;19.07;;
18818;SDS011;9537;45.594;9.294;2023-03-01T02:06:12;30.03;;;17.63;;
18818;SDS011;9537;45.594;9.294;2023-03-01T02:07:19;28.87;;;17.17;;
18818;SDS011;9537;45.594;9.294;2023-03-01T02:08:22;25.47;;;17.03;;
18818;SDS011;9537;45.594;9.294;2023-03-01T02:09:27;32.20;;;19.40;;
18818;SDS011;9537;45.594;9.294;2023-03-01T02:10:29;29.03;;;19.23;;
18818;SDS011;9537;45.594;9.294;2023-03-01T02:11:34;29.70;;;17.70;;
18818;SDS011;9537;45.594;9.294;2023-03-01T02:12:38;32.03;;;18.50;;
18818;SDS011;9537;45.594;9.294;2023-03-01T02:13:41;29.80;;;17.83;;
18818;SDS011;9537;45.594;9.294;2023-03-01T02:14:43;34.90;;;18.60;;
18818;SDS011;9537;45.594;9.294;2023-03-01T02:15:45;28.83;;;17.87;;
18818;SDS011;9537;45.594;9.294;2023-03-01T02:16:47;35.83;;;20.13;;
18818;SDS011;9537;45.594;9.294;2023-03-01T02:17:51;29.00;;;18.23;;
18818;SDS011;9537;45.594;9.294;2023-03-01T02:18:53;31.77;;;19.00;;
18818;SDS011;9537;45.594;9.294;2023-03-01T02:20:01;28.27;;;17.33;;
18818;SDS011;9537;45.594;9.294;2023-03-01T02:21:17;30.40;;;17.93;;
18818;SDS011;9537;45.594;9.294;2023-03-01T02:22:36;28.83;;;16.17;;
18818;SDS011;9537;45.594;9.294;2023-03-01T02:23:39;28.60;;;17.40;;
18818;SDS011;9537;45.594;9.294;2023-03-01T02:24:43;31.40;;;18.50;;
18818;SDS011;9537;45.594;9.294;2023-03-01T02:25:59;27.50;;;17.03;;
18818;SDS011;9537;45.594;9.294;2023-03-01T02:27:07;28.63;;;17.47;;
18818;SDS011;9537;45.594;9.294;2023-03-01T02:29:39;29.40;;;19.80;;
18818;SDS011;9537;45.594;9.294;2023-03-01T02:30:41;29.43;;;18.67;;
18818;SDS011;9537;45.594;9.294;2023-03-01T02:32:06;30.53;;;19.30;;
18818;SDS011;9537;45.594;9.294;2023-03-01T02:33:07;30.63;;;18.43;;
18818;SDS011;9537;45.594;9.294;2023-03-01T02:34:09;28.17;;;17.33;;
18818;SDS011;9537;45.594;9.294;2023-03-01T02:35:14;29.03;;;17.50;;
18818;SDS011;9537;45.594;9.294;2023-03-01T02:36:19;27.80;;;17.97;;
18818;SDS011;9537;45.594;9.294;2023-03-01T02:37:24;32.97;;;17.07;;
18818;SDS011;9537;45.594;9.294;2023-03-01T02:38:26;27.03;;;17.33;;
18818;SDS011;9537;45.594;9.294;2023-03-01T02:39:30;26.80;;;16.90;;
18818;SDS011;9537;45.594;9.294;2023-03-01T02:40:34;28.77;;;17.33;;
18818;SDS011;9537;45.594;9.294;2023-03-01T02:41:39;26.73;;;17.10;;
18818;SDS011;9537;45.594;9.294;2023-03-01T02:42:46;25.37;;;16.13;;
18818;SDS011;9537;45.594;9.294;2023-03-01T02:43:52;28.87;;;17.27;;
18818;SDS011;9537;45.594;9.294;2023-03-01T02:44:53;30.50;;;17.87;;
18818;SDS011;9537;45.594;9.294;2023-03-01T02:45:57;27.63;;;16.80;;
18818;SDS011;9537;45.594;9.294;2023-03-01T02:47:00;28.67;;;17.70;;
18818;SDS011;9537;45.594;9.294;2023-03-01T02:48:04;25.53;;;17.23;;
18818;SDS011;9537;45.594;9.294;2023-03-01T02:49:15;30.53;;;17.30;;
18818;SDS011;9537;45.594;9.294;2023-03-01T02:50:38;26.80;;;16.83;;
18818;SDS011;9537;45.594;9.294;2023-03-01T02:53:27;25.87;;;15.63;;
18818;SDS011;9537;45.594;9.294;2023-03-01T02:54:39;26.93;;;15.60;;
18818;SDS011;9537;45.594;9.294;2023-03-01T02:55:45;26.77;;;15.80;;
18818;SDS011;9537;45.594;9.294;2023-03-01T02:56:46;29.57;;;17.50;;
18818;SDS011;9537;45.594;9.294;2023-03-01T02:57:49;30.87;;;16.87;;
18818;SDS011;9537;45.594;9.294;2023-03-01T02:58:52;24.60;;;16.03;;
18818;SDS011;9537;45.594;9.294;2023-03-01T02:59:55;29.33;;;16.40;;
18818;SDS011;9537;45.594;9.294;2023-03-01T03:00:57;28.67;;;17.50;;
18818;SDS011;9537;45.594;9.294;2023-03-01T03:02:01;25.83;;;15.97;;
18818;SDS011;9537;45.594;9.294;2023-03-01T03:03:02;27.20;;;17.47;;
18818;SDS011;9537;45.594;9.294;2023-03-01T03:04:05;27.47;;;17.27;;
18818;SDS011;9537;45.594;9.294;2023-03-01T03:05:09;28.70;;;17.30;;
18818;SDS011;9537;45.594;9.294;2023-03-01T03:06:12;28.27;;;17.70;;
18818;SDS011;9537;45.594;9.294;2023-03-01T03:07:13;28.67;;;16.47;;
18818;SDS011;9537;45.594;9.294;2023-03-01T03:08:15;27.30;;;17.80;;
18818;SDS011;9537;45.594;9.294;2023-03-01T03:09:24;25.47;;;16.20;;
18818;SDS011;9537;45.594;9.294;2023-03-01T03:10:26;26.13;;;17.43;;
18818;SDS011;9537;45.594;9.294;2023-03-01T03:11:28;26.27;;;16.17;;
18818;SDS011;9537;45.594;9.294;2023-03-01T03:12:30;27.07;;;16.80;;
18818;SDS011;9537;45.594;9.294;2023-03-01T03:13:31;30.50;;;17.90;;
18818;SDS011;9537;45.594;9.294;2023-03-01T03:14:35;28.37;;;16.93;;
18818;SDS011;9537;45.594;9.294;2023-03-01T03:15:36;26.60;;;17.00;;
18818;SDS011;9537;45.594;9.294;2023-03-01T03:16:40;29.10;;;17.60;;
18818;SDS011;9537;45.594;9.294;2023-03-01T03:17:41;28.20;;;16.90;;
18818;SDS011;9537;45.594;9.294;2023-03-01T03:18:43;25.77;;;17.40;;
18818;SDS011;9537;45.594;9.294;2023-03-01T03:19:44;32.17;;;17.40;;
18818;SDS011;9537;45.594;9.294;2023-03-01T03:20:47;30.77;;;18.17;;
18818;SDS011;9537;45.594;9.294;2023-03-01T03:21:53;29.20;;;17.67;;
18818;SDS011;9537;45.594;9.294;2023-03-01T03:22:56;26.70;;;16.83;;
18818;SDS011;9537;45.594;9.294;2023-03-01T03:23:58;28.33;;;17.07;;
18818;SDS011;9537;45.594;9.294;2023-03-01T03:25:00;27.57;;;16.53;;
18818;SDS011;9537;45.594;9.294;2023-03-01T03:26:01;27.73;;;16.67;;
18818;SDS011;9537;45.594;9.294;2023-03-01T03:27:05;27.77;;;17.07;;
18818;SDS011;9537;45.594;9.294;2023-03-01T03:28:06;25.47;;;16.67;;
18818;SDS011;9537;45.594;9.294;2023-03-01T03:29:10;28.60;;;17.10;;
18818;SDS011;9537;45.594;9.294;2023-03-01T03:30:13;31.77;;;18.40;;
18818;SDS011;9537;45.594;9.294;2023-03-01T03:31:17;25.57;;;16.90;;
18818;SDS011;9537;45.594;9.294;2023-03-01T03:32:19;27.77;;;16.57;;
18818;SDS011;9537;45.594;9.294;2023-03-01T03:33:21;26.50;;;16.73;;
18818;SDS011;9537;45.594;9.294;2023-03-01T03:34:22;29.50;;;17.03;;
18818;SDS011;9537;45.594;9.294;2023-03-01T03:35:25;28.03;;;16.20;;
18818;SDS011;9537;45.594;9.294;2023-03-01T03:36:30;28.73;;;17.07;;
18818;SDS011;9537;45.594;9.294;2023-03-01T03:37:32;27.53;;;16.40;;
18818;SDS011;9537;45.594;9.294;2023-03-01T03:38:52;29.47;;;18.27;;
18818;SDS011;9537;45.594;9.294;2023-03-01T03:39:54;29.40;;;16.50;;
18818;SDS011;9537;45.594;9.294;2023-03-01T03:40:59;30.37;;;16.70;;
18818;SDS011;9537;45.594;9.294;2023-03-01T03:42:02;25.67;;;15.73;;
18818;SDS011;9537;45.594;9.294;2023-03-01T03:43:04;28.40;;;16.93;;
18818;SDS011;9537;45.594;9.294;2023-03-01T03:44:07;30.90;;;16.77;;
18818;SDS011;9537;45.594;9.294;2023-03-01T03:45:08;29.80;;;16.77;;
18818;SDS011;9537;45.594;9.294;2023-03-01T03:46:12;24.33;;;15.97;;
18818;SDS011;9537;45.594;9.294;2023-03-01T03:47:13;28.53;;;16.60;;
18818;SDS011;9537;45.594;9.294;2023-03-01T03:48:15;28.17;;;17.50;;
18818;SDS011;9537;45.594;9.294;2023-03-01T03:49:17;24.80;;;16.10;;
18818;SDS011;9537;45.594;9.294;2023-03-01T03:50:19;30.13;;;16.50;;
18818;SDS011;9537;45.594;9.294;2023-03-01T03:51:20;26.43;;;15.80;;
18818;SDS011;9537;45.594;9.294;2023-03-01T03:52:23;26.13;;;15.93;;
18818;SDS011;9537;45.594;9.294;2023-03-01T03:53:25;29.73;;;17.60;;
18818;SDS011;9537;45.594;9.294;2023-03-01T03:54:28;28.43;;;17.20;;
18818;SDS011;9537;45.594;9.294;2023-03-01T03:55:29;29.23;;;17.53;;
18818;SDS011;9537;45.594;9.294;2023-03-01T03:56:31;28.23;;;16.23;;
18818;SDS011;9537;45.594;9.294;2023-03-01T03:57:32;29.03;;;16.67;;
18818;SDS011;9537;45.594;9.294;2023-03-01T03:58:34;26.87;;;17.10;;
18818;SDS011;9537;45.594;9.294;2023-03-01T03:59:36;24.80;;;16.10;;
18818;SDS011;9537;45.594;9.294;2023-03-01T04:00:39;27.13;;;16.00;;
18818;SDS011;9537;45.594;9.294;2023-03-01T04:01:43;27.23;;;16.13;;
18818;SDS011;9537;45.594;9.294;2023-03-01T04:02:46;26.30;;;15.83;;
18818;SDS011;9537;45.594;9.294;2023-03-01T04:03:48;27.57;;;15.73;;
18818;SDS011;9537;45.594;9.294;2023-03-01T04:04:55;29.10;;;16.90;;
18818;SDS011;9537;45.594;9.294;2023-03-01T04:05:57;28.47;;;16.40;;
18818;SDS011;9537;45.594;9.294;2023-03-01T04:06:59;23.67;;;16.53;;
18818;SDS011;9537;45.594;9.294;2023-03-01T04:08:00;29.43;;;16.47;;
18818;SDS011;9537;45.594;9.294;2023-03-01T04:09:07;28.63;;;16.87;;
18818;SDS011;9537;45.594;9.294;2023-03-01T04:10:10;28.80;;;16.80;;
18818;SDS011;9537;45.594;9.294;2023-03-01T04:11:13;27.87;;;17.00;;
18818;SDS011;9537;45.594;9.294;2023-03-01T04:12:27;26.47;;;17.13;;
18818;SDS011;9537;45.594;9.294;2023-03-01T04:13:28;27.70;;;16.37;;
18818;SDS011;9537;45.594;9.294;2023-03-01T04:14:30;27.93;;;16.13;;
18818;SDS011;9537;45.594;9.294;2023-03-01T04:15:31;29.17;;;15.90;;
18818;SDS011;9537;45.594;9.294;2023-03-01T04:16:33;26.90;;;16.13;;
18818;SDS011;9537;45.594;9.294;2023-03-01T04:17:36;25.13;;;15.90;;
18818;SDS011;9537;45.594;9.294;2023-03-01T04:18:39;27.07;;;15.63;;
18818;SDS011;9537;45.594;9.294;2023-03-01T04:19:40;26.43;;;15.90;;
18818;SDS011;9537;45.594;9.294;2023-03-01T04:20:44;27.40;;;16.60;;
18818;SDS011;9537;45.594;9.294;2023-03-01T04:21:46;26.00;;;16.47;;
18818;SDS011;9537;45.594;9.294;2023-03-01T04:22:48;28.10;;;16.83;;
18818;SDS011;9537;45.594;9.294;2023-03-01T04:23:49;26.10;;;16.00;;
18818;SDS011;9537;45.594;9.294;2023-03-01T04:24:53;23.63;;;15.27;;
18818;SDS011;9537;45.594;9.294;2023-03-01T04:25:55;24.03;;;15.10;;
18818;SDS011;9537;45.594;9.294;2023-03-01T04:26:58;27.97;;;16.50;;
18818;SDS011;9537;45.594;9.294;2023-03-01T04:27:59;29.20;;;16.57;;
18818;SDS011;9537;45.594;9.294;2023-03-01T04:29:01;25.43;;;16.70;;
18818;SDS011;9537;45.594;9.294;2023-03-01T04:30:04;23.00;;;14.83;;
18818;SDS011;9537;45.594;9.294;2023-03-01T04:31:05;26.40;;;15.43;;
18818;SDS011;9537;45.594;9.294;2023-03-01T04:32:13;27.23;;;15.40;;
18818;SDS011;9537;45.594;9.294;2023-03-01T04:33:18;24.43;;;15.60;;
18818;SDS011;9537;45.594;9.294;2023-03-01T04:34:20;27.17;;;15.70;;
18818;SDS011;9537;45.594;9.294;2023-03-01T04:35:21;26.97;;;15.43;;
18818;SDS011;9537;45.594;9.294;2023-03-01T04:36:24;26.87;;;15.57;;
18818;SDS011;9537;45.594;9.294;2023-03-01T04:37:27;25.97;;;15.23;;
18818;SDS011;9537;45.594;9.294;2023-03-01T04:38:30;24.50;;;14.70;;
18818;SDS011;9537;45.594;9.294;2023-03-01T04:39:31;27.33;;;16.50;;
18818;SDS011;9537;45.594;9.294;2023-03-01T04:40:33;27.33;;;16.07;;
18818;SDS011;9537;45.594;9.294;2023-03-01T04:41:35;26.33;;;16.17;;
18818;SDS011;9537;45.594;9.294;2023-03-01T04:42:37;26.80;;;15.43;;
18818;SDS011;9537;45.594;9.294;2023-03-01T04:43:38;26.93;;;15.87;;
18818;SDS011;9537;45.594;9.294;2023-03-01T04:44:40;23.73;;;15.33;;
18818;SDS011;9537;45.594;9.294;2023-03-01T04:45:41;26.53;;;16.60;;
18818;SDS011;9537;45.594;9.294;2023-03-01T04:46:43;28.90;;;15.97;;
18818;SDS011;9537;45.594;9.294;2023-03-01T04:47:45;26.83;;;15.13;;
18818;SDS011;9537;45.594;9.294;2023-03-01T04:48:49;27.60;;;16.87;;
18818;SDS011;9537;45.594;9.294;2023-03-01T04:49:51;24.47;;;15.57;;
18818;SDS011;9537;45.594;9.294;2023-03-01T04:50:53;26.77;;;16.07;;
18818;SDS011;9537;45.594;9.294;2023-03-01T04:51:54;25.93;;;16.53;;
18818;SDS011;9537;45.594;9.294;2023-03-01T04:52:58;27.53;;;16.93;;
18818;SDS011;9537;45.594;9.294;2023-03-01T04:53:59;29.67;;;18.10;;
18818;SDS011;9537;45.594;9.294;2023-03-01T04:55:01;28.63;;;17.17;;
18818;SDS011;9537;45.594;9.294;2023-03-01T04:56:04;26.57;;;16.03;;
18818;SDS011;9537;45.594;9.294;2023-03-01T04:57:07;25.43;;;15.03;;
18818;SDS011;9537;45.594;9.294;2023-03-01T04:58:08;25.67;;;14.97;;
18818;SDS011;9537;45.594;9.294;2023-03-01T04:59:10;26.20;;;15.57;;
18818;SDS011;9537;45.594;9.294;2023-03-01T05:00:14;25.57;;;16.30;;
18818;SDS011;9537;45.594;9.294;2023-03-01T05:01:22;29.00;;;17.23;;
18818;SDS011;9537;45.594;9.294;2023-03-01T05:02:23;28.73;;;16.47;;
18818;SDS011;9537;45.594;9.294;2023-03-01T05:03:25;31.50;;;17.07;;
18818;SDS011;9537;45.594;9.294;2023-03-01T05:04:27;26.40;;;16.43;;
18818;SDS011;9537;45.594;9.294;2023-03-01T05:05:30;29.00;;;16.07;;
18818;SDS011;9537;45.594;9.294;2023-03-01T05:06:32;26.03;;;16.63;;
18818;SDS011;9537;45.594;9.294;2023-03-01T05:07:35;26.23;;;17.27;;
18818;SDS011;9537;45.594;9.294;2023-03-01T05:08:36;29.97;;;17.17;;
18818;SDS011;9537;45.594;9.294;2023-03-01T05:09:38;25.67;;;14.93;;
18818;SDS011;9537;45.594;9.294;2023-03-01T05:10:39;26.03;;;16.27;;
18818;SDS011;9537;45.594;9.294;2023-03-01T05:11:42;28.47;;;15.80;;
18818;SDS011;9537;45.594;9.294;2023-03-01T05:12:44;29.77;;;16.80;;
18818;SDS011;9537;45.594;9.294;2023-03-01T05:13:47;30.10;;;17.17;;
18818;SDS011;9537;45.594;9.294;2023-03-01T05:14:50;27.20;;;16.43;;
18818;SDS011;9537;45.594;9.294;2023-03-01T05:15:53;25.70;;;16.70;;
18818;SDS011;9537;45.594;9.294;2023-03-01T05:16:56;30.30;;;16.33;;
18818;SDS011;9537;45.594;9.294;2023-03-01T05:18:04;28.67;;;16.53;;
18818;SDS011;9537;45.594;9.294;2023-03-01T05:19:11;24.97;;;14.97;;
18818;SDS011;9537;45.594;9.294;2023-03-01T05:20:17;26.50;;;15.57;;
18818;SDS011;9537;45.594;9.294;2023-03-01T05:21:23;23.57;;;14.73;;
18818;SDS011;9537;45.594;9.294;2023-03-01T05:22:24;23.33;;;14.73;;
18818;SDS011;9537;45.594;9.294;2023-03-01T05:23:26;23.37;;;14.63;;
18818;SDS011;9537;45.594;9.294;2023-03-01T05:24:27;21.73;;;14.43;;
18818;SDS011;9537;45.594;9.294;2023-03-01T05:25:30;27.73;;;15.57;;
18818;SDS011;9537;45.594;9.294;2023-03-01T05:26:33;26.10;;;16.07;;
18818;SDS011;9537;45.594;9.294;2023-03-01T05:27:35;28.10;;;15.33;;
18818;SDS011;9537;45.594;9.294;2023-03-01T05:28:36;34.93;;;17.10;;
18818;SDS011;9537;45.594;9.294;2023-03-01T05:29:39;28.50;;;16.57;;
18818;SDS011;9537;45.594;9.294;2023-03-01T05:30:40;24.57;;;15.83;;
18818;SDS011;9537;45.594;9.294;2023-03-01T05:31:42;26.10;;;15.17;;
18818;SDS011;9537;45.594;9.294;2023-03-01T05:32:44;25.87;;;15.27;;
18818;SDS011;9537;45.594;9.294;2023-03-01T05:33:48;26.47;;;14.83;;
18818;SDS011;9537;45.594;9.294;2023-03-01T05:34:49;24.47;;;14.87;;
18818;SDS011;9537;45.594;9.294;2023-03-01T05:35:54;30.07;;;15.80;;
18818;SDS011;9537;45.594;9.294;2023-03-01T05:36:56;25.60;;;15.47;;
18818;SDS011;9537;45.594;9.294;2023-03-01T05:37:58;26.03;;;15.70;;
18818;SDS011;9537;45.594;9.294;2023-03-01T05:38:59;26.07;;;15.67;;
18818;SDS011;9537;45.594;9.294;2023-03-01T05:40:01;28.57;;;15.77;;
18818;SDS011;9537;45.594;9.294;2023-03-01T05:41:04;25.43;;;14.47;;
18818;SDS011;9537;45.594;9.294;2023-03-01T05:42:06;25.13;;;14.70;;
18818;SDS011;9537;45.594;9.294;2023-03-01T05:43:09;26.93;;;14.97;;
18818;SDS011;9537;45.594;9.294;2023-03-01T05:44:11;27.90;;;15.43;;
18818;SDS011;9537;45.594;9.294;2023-03-01T05:45:13;28.00;;;15.80;;
18818;SDS011;9537;45.594;9.294;2023-03-01T05:46:16;26.00;;;15.10;;
18818;SDS011;9537;45.594;9.294;2023-03-01T05:47:17;23.27;;;15.20;;
18818;SDS011;9537;45.594;9.294;2023-03-01T05:48:21;24.67;;;15.73;;
18818;SDS011;9537;45.594;9.294;2023-03-01T05:49:23;26.90;;;16.37;;
18818;SDS011;9537;45.594;9.294;2023-03-01T05:50:25;30.27;;;15.80;;
18818;SDS011;9537;45.594;9.294;2023-03-01T05:51:29;26.37;;;15.57;;
18818;SDS011;9537;45.594;9.294;2023-03-01T05:52:31;27.00;;;15.40;;
18818;SDS011;9537;45.594;9.294;2023-03-01T05:53:32;27.27;;;15.90;;
18818;SDS011;9537;45.594;9.294;2023-03-01T05:54:34;24.97;;;15.53;;
18818;SDS011;9537;45.594;9.294;2023-03-01T05:55:35;28.57;;;15.50;;
18818;SDS011;9537;45.594;9.294;2023-03-01T05:56:38;27.73;;;15.47;;
18818;SDS011;9537;45.594;9.294;2023-03-01T05:57:39;25.70;;;16.03;;
18818;SDS011;9537;45.594;9.294;2023-03-01T05:58:41;25.37;;;15.27;;
18818;SDS011;9537;45.594;9.294;2023-03-01T05:59:43;24.67;;;14.50;;
18818;SDS011;9537;45.594;9.294;2023-03-01T06:00:45;26.07;;;15.23;;
18818;SDS011;9537;45.594;9.294;2023-03-01T06:01:48;27.83;;;15.27;;
18818;SDS011;9537;45.594;9.294;2023-03-01T06:02:50;23.20;;;15.07;;
18818;SDS011;9537;45.594;9.294;2023-03-01T06:03:52;26.87;;;15.30;;
18818;SDS011;9537;45.594;9.294;2023-03-01T06:04:54;26.00;;;16.27;;
18818;SDS011;9537;45.594;9.294;2023-03-01T06:05:56;23.97;;;14.80;;
18818;SDS011;9537;45.594;9.294;2023-03-01T06:07:00;25.43;;;16.60;;
18818;SDS011;9537;45.594;9.294;2023-03-01T06:08:02;25.13;;;16.00;;
18818;SDS011;9537;45.594;9.294;2023-03-01T06:09:04;29.60;;;16.10;;
18818;SDS011;9537;45.594;9.294;2023-03-01T06:10:08;26.03;;;16.27;;
18818;SDS011;9537;45.594;9.294;2023-03-01T06:11:10;25.80;;;15.87;;
18818;SDS011;9537;45.594;9.294;2023-03-01T06:12:12;30.30;;;15.47;;
18818;SDS011;9537;45.594;9.294;2023-03-01T06:13:13;28.97;;;15.93;;
18818;SDS011;9537;45.594;9.294;2023-03-01T06:14:15;30.93;;;16.83;;
18818;SDS011;9537;45.594;9.294;2023-03-01T06:15:16;24.20;;;15.80;;
18818;SDS011;9537;45.594;9.294;2023-03-01T06:16:19;26.73;;;15.60;;
18818;SDS011;9537;45.594;9.294;2023-03-01T06:17:21;28.40;;;17.10;;